createdAt,value
2023-01-19T08:01:17.810Z,93958.00
2023-01-19T08:01:27.821Z,93962.00
2023-01-19T08:01:38.042Z,93962.00
2023-01-19T08:01:47.971Z,93962.00
2023-01-19T08:01:58.351Z,93964.00
2023-01-19T08:02:08.173Z,93962.00
2023-01-19T08:02:18.149Z,93964.00
2023-01-19T08:02:28.028Z,93960.00
2023-01-19T08:02:38.096Z,93964.00
2023-01-19T08:02:47.983Z,93968.00
2023-01-19T08:02:58.205Z,93964.00
2023-01-19T08:03:07.984Z,93964.00
2023-01-19T08:03:17.971Z,93966.00
2023-01-19T08:03:27.961Z,93964.00
2023-01-19T08:03:37.936Z,93964.00
2023-01-19T08:03:47.896Z,93964.00
2023-01-19T08:03:57.927Z,93962.00
2023-01-19T08:04:07.870Z,93968.00
2023-01-19T08:04:17.836Z,93960.00
2023-01-19T08:04:27.809Z,93962.00
2023-01-19T08:04:37.808Z,93962.00
2023-01-19T08:04:47.874Z,93958.00
2023-01-19T08:04:57.723Z,93960.00
2023-01-19T08:05:07.691Z,93958.00
2023-01-19T08:05:17.705Z,93962.00
2023-01-19T08:05:27.637Z,93964.00
2023-01-19T08:05:37.571Z,93968.00
2023-01-19T08:05:47.527Z,93964.00
2023-01-19T08:05:57.570Z,93962.00
2023-01-19T08:06:07.481Z,93966.00
2023-01-19T08:06:17.467Z,93962.00
2023-01-19T08:06:27.447Z,93962.00
2023-01-19T08:06:37.409Z,93968.00
2023-01-19T08:06:47.438Z,93966.00
2023-01-19T08:06:57.350Z,93966.00
2023-01-19T08:07:07.285Z,93968.00
2023-01-19T08:07:17.292Z,93966.00
2023-01-19T08:07:27.230Z,93964.00
2023-01-19T08:07:37.169Z,93964.00
2023-01-19T08:07:47.264Z,93968.00
2023-01-19T08:07:57.140Z,93970.00
2023-01-19T08:08:07.073Z,93964.00
2023-01-19T08:08:17.096Z,93968.00
2023-01-19T08:08:27.041Z,93968.00
2023-01-19T08:08:37.085Z,93966.00
2023-01-19T08:08:47.002Z,93968.00
2023-01-19T08:08:56.931Z,93966.00
2023-01-19T08:09:06.978Z,93968.00
2023-01-19T08:09:16.873Z,93968.00
2023-01-19T08:09:26.846Z,93968.00
2023-01-19T08:09:36.845Z,93970.00
2023-01-19T08:09:46.820Z,93970.00
2023-01-19T08:09:56.757Z,93968.00
2023-01-19T08:10:06.740Z,93968.00
2023-01-19T08:10:16.708Z,93968.00
2023-01-19T08:10:26.709Z,93968.00
2023-01-19T08:10:36.677Z,93964.00
2023-01-19T08:10:46.619Z,93968.00
2023-01-19T08:10:56.654Z,93968.00
2023-01-19T08:11:06.582Z,93970.00
2023-01-19T08:11:16.519Z,93968.00
2023-01-19T08:11:26.471Z,93968.00
2023-01-19T08:11:36.477Z,93974.00
2023-01-19T08:11:46.427Z,93968.00
2023-01-19T08:11:56.409Z,93970.00
2023-01-19T08:12:06.374Z,93966.00
2023-01-19T08:12:16.347Z,93968.00
2023-01-19T08:12:26.305Z,93968.00
2023-01-19T08:12:36.279Z,93966.00
2023-01-19T08:12:46.290Z,93966.00
2023-01-19T08:12:56.319Z,93968.00
2023-01-19T08:13:06.210Z,93972.00
2023-01-19T08:13:16.193Z,93972.00
2023-01-19T08:13:26.096Z,93968.00
2023-01-19T08:13:36.087Z,93970.00
2023-01-19T08:13:46.064Z,93970.00
2023-01-19T08:13:56.046Z,93972.00
2023-01-19T08:14:07.933Z,93970.00
2023-01-19T08:14:15.934Z,93974.00
2023-01-19T08:14:25.890Z,93974.00
2023-01-19T08:14:35.882Z,93972.00
2023-01-19T08:14:45.817Z,93972.00
2023-01-19T08:14:55.846Z,93974.00
2023-01-19T08:15:05.707Z,93972.00
2023-01-19T08:15:15.683Z,93970.00
2023-01-19T08:15:25.720Z,93974.00
2023-01-19T08:15:35.624Z,93974.00
2023-01-19T08:15:45.571Z,93972.00
2023-01-19T08:15:55.536Z,93970.00
2023-01-19T08:16:05.450Z,93978.00
2023-01-19T08:16:15.422Z,93976.00
2023-01-19T08:16:25.346Z,93974.00
2023-01-19T08:16:35.308Z,93974.00
2023-01-19T08:16:45.266Z,93974.00
2023-01-19T08:16:55.214Z,93972.00
2023-01-19T08:17:05.161Z,93976.00
2023-01-19T08:17:15.126Z,93976.00
2023-01-19T08:17:25.080Z,93976.00
2023-01-19T08:17:35.006Z,93976.00
2023-01-19T08:17:45.049Z,93974.00
2023-01-19T08:17:54.952Z,93978.00
2023-01-19T08:18:04.992Z,93974.00
2023-01-19T08:18:14.828Z,93976.00
2023-01-19T08:18:24.820Z,93980.00
2023-01-19T08:18:34.793Z,93964.00
2023-01-19T08:18:44.731Z,93968.00
2023-01-19T08:18:54.718Z,93968.00
2023-01-19T08:19:04.704Z,93970.00
2023-01-19T08:19:14.630Z,93970.00
2023-01-19T08:19:24.618Z,93970.00
2023-01-19T08:19:34.553Z,93970.00
2023-01-19T08:19:44.524Z,93972.00
2023-01-19T08:19:54.493Z,93974.00
2023-01-19T08:20:04.451Z,93976.00
2023-01-19T08:20:14.444Z,93976.00
2023-01-19T08:20:24.418Z,93974.00
2023-01-19T08:20:34.397Z,93978.00
2023-01-19T08:20:44.329Z,93976.00
2023-01-19T08:20:54.263Z,93976.00
2023-01-19T08:21:04.298Z,93974.00
2023-01-19T08:21:14.265Z,93976.00
2023-01-19T08:21:24.191Z,93980.00
2023-01-19T08:21:34.184Z,93978.00
2023-01-19T08:21:44.122Z,93978.00
2023-01-19T08:21:54.079Z,93978.00
2023-01-19T08:22:04.056Z,93978.00
2023-01-19T08:22:14.026Z,93976.00
2023-01-19T08:22:23.991Z,93976.00
2023-01-19T08:22:34.061Z,93978.00
2023-01-19T08:22:44.038Z,93976.00
2023-01-19T08:22:53.976Z,93974.00
2023-01-19T08:23:04.507Z,93976.00
2023-01-19T08:23:13.959Z,93974.00
2023-01-19T08:23:23.842Z,93978.00
2023-01-19T08:23:33.798Z,93976.00
2023-01-19T08:23:43.812Z,93978.00
2023-01-19T08:23:53.730Z,93978.00
2023-01-19T08:24:03.741Z,93976.00
2023-01-19T08:24:13.664Z,93978.00
2023-01-19T08:24:23.568Z,93976.00
2023-01-19T08:24:33.533Z,93976.00
2023-01-19T08:24:43.501Z,93978.00
2023-01-19T08:24:53.422Z,93976.00
2023-01-19T08:25:03.421Z,93976.00
2023-01-19T08:25:13.391Z,93974.00
2023-01-19T08:25:40.697Z,93974.00
2023-01-19T08:25:50.702Z,93974.00
2023-01-19T08:26:00.900Z,93976.00
2023-01-19T08:26:10.905Z,93976.00
2023-01-19T08:26:20.908Z,93974.00
2023-01-19T08:26:30.951Z,93974.00
2023-01-19T08:26:40.881Z,93976.00
2023-01-19T08:26:50.911Z,93974.00
2023-01-19T08:27:00.909Z,93970.00
2023-01-19T08:27:11.468Z,93974.00
2023-01-19T08:27:20.913Z,93972.00
2023-01-19T08:27:30.878Z,93974.00
2023-01-19T08:27:40.895Z,93976.00
2023-01-19T08:27:50.921Z,93972.00
2023-01-19T08:28:00.881Z,93974.00
2023-01-19T08:28:10.894Z,93970.00
2023-01-19T08:28:20.888Z,93978.00
2023-01-19T08:28:30.969Z,93976.00
2023-01-19T08:28:40.894Z,93976.00
2023-01-19T08:28:50.866Z,93976.00
2023-01-19T08:29:00.865Z,93976.00
2023-01-19T08:29:10.865Z,93974.00
2023-01-19T08:29:20.931Z,93976.00
2023-01-19T08:29:30.892Z,93974.00
2023-01-19T08:29:40.897Z,93974.00
2023-01-19T08:29:50.920Z,93976.00
2023-01-19T08:30:00.899Z,93976.00
2023-01-19T08:30:10.871Z,93974.00
2023-01-19T08:30:20.881Z,93978.00
2023-01-19T08:30:30.872Z,93976.00
2023-01-19T08:30:41.024Z,93976.00
2023-01-19T08:30:50.973Z,93974.00
2023-01-19T08:31:11.085Z,93978.00
2023-01-19T08:31:20.456Z,93976.00
2023-01-19T08:31:24.694Z,93978.00
2023-01-19T08:31:31.032Z,93978.00
2023-01-19T08:31:40.917Z,93978.00
2023-01-19T08:31:50.938Z,93978.00
2023-01-19T08:32:00.917Z,93978.00
2023-01-19T08:32:10.994Z,93974.00
2023-01-19T08:32:20.933Z,93980.00
2023-01-19T08:32:30.921Z,93981.00
2023-01-19T08:32:40.881Z,93980.00
2023-01-19T08:32:50.856Z,93981.00
2023-01-19T08:33:01.243Z,93980.00
2023-01-19T08:33:11.115Z,93981.00
2023-01-19T08:33:21.169Z,93981.00
2023-01-19T08:33:31.236Z,93981.00
2023-01-19T08:33:41.122Z,93981.00
2023-01-19T08:33:51.176Z,93981.00
2023-01-19T08:34:01.106Z,93980.00
2023-01-19T08:34:11.159Z,93981.00
2023-01-19T08:34:21.082Z,93981.00
2023-01-19T08:34:31.128Z,93981.00
2023-01-19T08:34:41.143Z,93983.00
2023-01-19T08:34:51.100Z,93981.00
2023-01-19T08:35:01.149Z,93980.00
2023-01-19T08:35:11.146Z,93983.00
2023-01-19T08:35:21.105Z,93983.00
2023-01-19T08:35:31.122Z,93987.00
2023-01-19T08:35:41.137Z,93983.00
2023-01-19T08:35:51.094Z,93981.00
2023-01-19T08:36:01.204Z,93981.00
2023-01-19T08:36:11.110Z,93976.00
2023-01-19T08:36:21.085Z,93978.00
2023-01-19T08:36:31.118Z,93980.00
2023-01-19T08:36:41.302Z,93983.00
2023-01-19T08:36:51.115Z,93983.00
2023-01-19T08:37:01.122Z,93981.00
2023-01-19T08:37:11.152Z,93983.00
2023-01-19T08:37:21.105Z,93983.00
2023-01-19T08:37:32.692Z,93985.00
2023-01-19T08:37:41.092Z,93983.00
2023-01-19T08:37:51.118Z,93981.00
2023-01-19T08:38:01.154Z,93981.00
2023-01-19T08:38:11.182Z,93983.00
2023-01-19T08:38:21.205Z,93985.00
2023-01-19T08:38:31.137Z,93983.00
2023-01-19T08:38:41.193Z,93983.00
2023-01-19T08:38:51.108Z,93985.00
2023-01-19T08:39:01.131Z,93983.00
2023-01-19T08:39:11.076Z,93983.00
2023-01-19T08:39:21.108Z,93985.00
2023-01-19T08:39:31.134Z,93983.00
2023-01-19T08:39:41.107Z,93983.00
2023-01-19T08:39:51.117Z,93985.00
2023-01-19T08:40:01.555Z,93983.00
2023-01-19T08:40:11.278Z,93983.00
2023-01-19T08:40:21.226Z,93981.00
2023-01-19T08:40:31.242Z,93983.00
2023-01-19T08:40:41.257Z,93983.00
2023-01-19T08:40:51.246Z,93983.00
2023-01-19T08:41:01.254Z,93983.00
2023-01-19T08:41:11.210Z,93983.00
2023-01-19T08:41:21.272Z,93983.00
2023-01-19T08:41:31.257Z,93983.00
2023-01-19T08:41:41.205Z,93985.00
2023-01-19T08:41:51.225Z,93985.00
2023-01-19T08:42:01.254Z,93983.00
2023-01-19T08:42:11.215Z,93985.00
2023-01-19T08:42:21.236Z,93983.00
2023-01-19T08:42:31.247Z,93985.00
2023-01-19T08:42:41.223Z,93983.00
2023-01-19T08:42:51.238Z,93983.00
2023-01-19T08:43:01.731Z,93983.00
2023-01-19T08:43:11.199Z,93983.00
2023-01-19T08:43:21.237Z,93985.00
2023-01-19T08:43:31.281Z,93985.00
2023-01-19T08:43:41.304Z,93985.00
2023-01-19T08:43:51.257Z,93983.00
2023-01-19T08:44:01.231Z,93981.00
2023-01-19T08:44:11.199Z,93981.00
2023-01-19T08:44:21.181Z,93981.00
2023-01-19T08:44:31.197Z,93983.00
2023-01-19T08:44:49.656Z,93983.00
2023-01-19T08:44:58.151Z,93981.00
2023-01-19T08:45:02.348Z,93981.00
2023-01-19T08:45:11.207Z,93981.00
2023-01-19T08:45:21.245Z,93978.00
2023-01-19T08:45:31.206Z,93981.00
2023-01-19T08:45:41.231Z,93983.00
2023-01-19T08:45:51.280Z,93985.00
2023-01-19T08:46:01.307Z,93985.00
2023-01-19T08:46:11.292Z,93981.00
2023-01-19T08:46:21.317Z,93985.00
2023-01-19T08:46:31.248Z,93985.00
2023-01-19T08:46:41.292Z,93983.00
2023-01-19T08:46:51.192Z,93987.00
2023-01-19T08:47:01.195Z,93981.00
2023-01-19T08:47:11.258Z,93985.00
2023-01-19T08:47:21.223Z,93983.00
2023-01-19T08:47:31.212Z,93983.00
2023-01-19T08:47:41.296Z,93985.00
2023-01-19T08:47:51.233Z,93985.00
